SBCP

Details ICAO SBCP (CAW)
Name Bartolomeu Lisandro
Region Brazil
Timezone America/Sao_Paulo (UTC-3.0)
Plans Departing 18
Arriving 17
Stats Elevation 57 ft / 17 m (AMSL)
Location -21.698334° -41.301668°
Runways 1
Magnetic Variation 23.512° W
Sunrise 2018-05-22 09:13:28 UTC / 2018-05-22 06:13:28 Local
Sunset 2018-05-22 20:13:09 UTC / 2018-05-22 17:13:09 Local
Advertisement - Login to hide

Runways

ID Width Length Bearing (true) Bearing (mag) Surface Threshold Offset Overrun Length
07 148 ft / 45 m 5,093 ft / 1,552 m 46.60° 70.11° Asphalt 0 ft / 0 m 0 ft / 0 m
25 148 ft / 45 m 5,093 ft / 1,552 m 226.60° 250.11° Asphalt 0 ft / 0 m 0 ft / 0 m

Map

Weather


0- 5 10 15 20 25 30 35+ Temperature / ° C

Clouds and Precipitation
Forecast for 2018-05-22 18:00 UTC. Updated 3 hours ago

Ground ~20,000 ft ~40,000 ft Winds

METAR

SBCP 222000Z 09010KT CAVOK 24/18 Q1017

TAF

TAF SBCP 221500Z 2218/2306 07010KT CAVOK TX28/2218Z TN20/2223Z RMK PHD

Frequencies

Tower 125.70 MHz CAMPOS RDO
Warning: Do not use this data for real-world aviation or navigation. No guarantee of current accuracy is given.